Time;durP1;ratioP1;P1;durP2;ratioP2;P2;SDS_P1;SDS_P2;PMS_P1;PMS_P2;Temp;Humidity;BMP_temperature;BMP_pressure;BME280_temperature;BME280_humidity;BME280_pressure;Samples;Min_cycle;Max_cycle;Signal;HPM_P1;HPM_P2
2023/07/31 00:00:52;;;;;;;11.68;7.55;;;19.80;99.90;;;;;;5099563;28;20062;-77
2023/07/31 00:03:19;;;;;;;9.68;7.82;;;19.80;99.90;;;;;;5102492;28;20430;-77
2023/07/31 00:05:47;;;;;;;10.55;7.78;;;19.90;99.90;;;;;;5079305;28;20047;-75
2023/07/31 00:08:14;;;;;;;9.80;7.90;;;19.90;99.90;;;;;;5100009;28;20043;-77
2023/07/31 00:10:41;;;;;;;9.13;8.10;;;19.80;99.90;;;;;;5097179;28;20040;-76
2023/07/31 00:13:08;;;;;;;12.10;7.72;;;19.80;99.90;;;;;;5099603;28;20096;-76
2023/07/31 00:15:36;;;;;;;12.07;7.95;;;19.70;99.90;;;;;;5100406;28;20061;-76
2023/07/31 00:18:04;;;;;;;9.52;7.70;;;19.80;99.90;;;;;;5100262;28;20046;-74
2023/07/31 00:20:32;;;;;;;9.02;8.02;;;19.80;99.90;;;;;;5098002;28;20035;-75
2023/07/31 00:22:59;;;;;;;9.13;7.55;;;19.80;99.90;;;;;;5099040;28;20044;-77
2023/07/31 00:25:26;;;;;;;10.55;8.40;;;19.90;99.90;;;;;;5079888;28;20047;-73
2023/07/31 00:27:54;;;;;;;9.65;8.45;;;19.80;99.90;;;;;;5097414;28;20077;-74
2023/07/31 00:30:22;;;;;;;9.82;8.32;;;19.80;99.90;;;;;;5082293;28;20126;-76
2023/07/31 00:32:49;;;;;;;9.77;7.65;;;19.60;99.90;;;;;;5080258;28;20086;-76
2023/07/31 00:35:18;;;;;;;9.45;8.00;;;19.60;99.90;;;;;;5082157;28;20054;-77
2023/07/31 00:37:45;;;;;;;9.68;7.97;;;19.50;99.90;;;;;;5098263;28;20040;-76
2023/07/31 00:40:13;;;;;;;9.85;7.85;;;19.40;99.90;;;;;;5079287;28;20036;-77
2023/07/31 00:42:41;;;;;;;9.10;7.85;;;19.40;99.90;;;;;;5100550;28;20047;-76
2023/07/31 00:45:09;;;;;;;9.43;8.00;;;19.40;99.90;;;;;;5080503;28;20097;-76
2023/07/31 00:47:37;;;;;;;14.98;8.52;;;19.40;99.90;;;;;;5099679;28;20523;-76
2023/07/31 00:50:05;;;;;;;12.13;8.70;;;19.50;99.90;;;;;;5078969;28;20043;-76
2023/07/31 00:52:34;;;;;;;10.65;8.27;;;19.50;99.90;;;;;;5081305;28;20032;-76
2023/07/31 00:55:03;;;;;;;9.98;8.10;;;19.40;99.90;;;;;;5080257;28;20044;-77
2023/07/31 00:57:33;;;;;;;9.13;7.82;;;19.40;99.90;;;;;;5099799;28;20455;-75
2023/07/31 01:00:00;;;;;;;8.07;7.00;;;19.50;99.90;;;;;;5098792;28;20704;-75
2023/07/31 01:02:27;;;;;;;9.10;7.55;;;19.50;99.90;;;;;;5082663;28;20052;-76
2023/07/31 01:04:55;;;;;;;11.60;7.32;;;19.50;99.90;;;;;;5079940;28;20039;-77
2023/07/31 01:07:29;;;;;;;8.75;7.32;;;19.40;99.90;;;;;;5098853;28;20036;-74
2023/07/31 01:10:05;;;;;;;8.65;7.53;;;19.20;99.90;;;;;;5078883;28;20040;-77
2023/07/31 01:12:33;;;;;;;10.82;7.80;;;19.10;99.90;;;;;;5079529;28;20313;-77
2023/07/31 01:15:04;;;;;;;10.60;8.55;;;19.00;99.90;;;;;;5099300;28;20051;-77
2023/07/31 01:17:32;;;;;;;9.73;8.73;;;18.90;99.90;;;;;;5103005;28;20047;-75
2023/07/31 01:20:03;;;;;;;14.40;11.57;;;18.80;99.90;;;;;;5102769;28;20047;-78
2023/07/31 01:22:50;;;;;;;10.98;8.00;;;18.80;99.90;;;;;;5087578;28;20032;-73
2023/07/31 01:25:26;;;;;;;;;;;18.80;99.90;;;;;;5093787;28;20043;-74
2023/07/31 01:28:02;;;;;;;9.57;8.50;;;18.80;99.90;;;;;;5106167;28;19920;-74
2023/07/31 01:30:35;;;;;;;;;;;18.80;99.90;;;;;;5100691;28;20056;-75
2023/07/31 01:33:06;;;;;;;9.73;8.73;;;18.80;99.90;;;;;;5106722;28;20063;-76
2023/07/31 01:35:34;;;;;;;12.50;9.50;;;18.80;99.90;;;;;;5094344;28;20046;-73
2023/07/31 01:38:02;;;;;;;11.00;8.18;;;18.80;99.90;;;;;;5105890;28;20085;-76
2023/07/31 01:40:29;;;;;;;9.35;8.13;;;18.80;99.90;;;;;;5101562;28;20036;-77
2023/07/31 01:42:58;;;;;;;11.10;8.63;;;18.80;99.90;;;;;;5103538;28;20031;-77
2023/07/31 01:45:26;;;;;;;10.10;8.55;;;18.70;99.90;;;;;;5102052;28;20044;-76
2023/07/31 01:47:53;;;;;;;12.40;8.52;;;18.70;99.90;;;;;;5103627;28;20047;-79
2023/07/31 01:50:21;;;;;;;11.02;8.55;;;18.70;99.90;;;;;;5086030;28;20036;-73
2023/07/31 01:52:49;;;;;;;11.38;9.18;;;18.80;99.90;;;;;;5125835;28;20035;-75
2023/07/31 01:55:16;;;;;;;9.85;8.85;;;18.80;99.90;;;;;;5096951;28;20093;-76
2023/07/31 01:57:44;;;;;;;12.02;8.55;;;18.80;99.90;;;;;;5083914;28;20047;-77
2023/07/31 02:00:13;;;;;;;13.05;8.52;;;18.80;99.90;;;;;;5086690;28;20472;-77
2023/07/31 02:02:41;;;;;;;11.68;8.57;;;18.80;99.90;;;;;;5102874;28;20044;-75
2023/07/31 02:05:09;;;;;;;13.65;8.63;;;18.90;99.90;;;;;;5115715;28;20043;-76
2023/07/31 02:07:36;;;;;;;12.20;7.93;;;18.90;99.90;;;;;;5095690;28;20518;-76
2023/07/31 02:10:04;;;;;;;12.73;8.80;;;18.90;99.90;;;;;;5085992;28;20097;-74
2023/07/31 02:12:33;;;;;;;13.23;9.07;;;19.00;99.90;;;;;;5104377;28;20115;-76
2023/07/31 02:15:02;;;;;;;12.57;9.32;;;19.00;99.90;;;;;;5101732;28;20541;-74
2023/07/31 02:17:31;;;;;;;12.73;10.07;;;18.90;99.90;;;;;;5102150;28;20445;-74
2023/07/31 02:19:58;;;;;;;15.88;10.60;;;18.90;99.90;;;;;;5107922;28;20038;-75
2023/07/31 02:22:26;;;;;;;24.80;14.68;;;18.80;99.90;;;;;;5102389;28;20214;-73
2023/07/31 02:24:53;;;;;;;31.25;15.45;;;18.80;99.90;;;;;;5101068;28;20047;-72
2023/07/31 02:27:27;;;;;;;27.67;14.57;;;18.80;99.90;;;;;;5101579;28;20048;-74
2023/07/31 02:29:55;;;;;;;28.73;14.55;;;18.90;99.90;;;;;;5125572;28;20054;-75
2023/07/31 02:32:22;;;;;;;31.52;15.40;;;18.90;99.90;;;;;;5126289;28;20036;-75
2023/07/31 02:34:51;;;;;;;30.50;15.75;;;19.00;99.90;;;;;;5125565;28;20099;-77
2023/07/31 02:37:19;;;;;;;27.73;14.85;;;19.10;99.90;;;;;;5103156;28;20137;-78
2023/07/31 02:39:47;;;;;;;22.20;12.73;;;19.20;99.90;;;;;;5089371;28;20040;-77
2023/07/31 02:42:15;;;;;;;23.33;12.50;;;19.20;99.90;;;;;;5111128;28;20040;-77
2023/07/31 02:44:42;;;;;;;29.98;14.55;;;19.20;99.90;;;;;;5102253;28;20128;-76
2023/07/31 02:47:11;;;;;;;27.75;14.50;;;19.10;99.90;;;;;;5102830;28;20438;-74
2023/07/31 02:49:38;;;;;;;27.83;16.13;;;19.10;99.90;;;;;;5104247;28;20040;-76
2023/07/31 02:52:08;;;;;;;32.42;16.98;;;19.10;99.90;;;;;;5099896;28;20075;-75
2023/07/31 02:54:35;;;;;;;38.10;18.75;;;19.20;99.90;;;;;;5104121;28;20055;-76
2023/07/31 02:57:03;;;;;;;48.50;20.48;;;19.20;99.90;;;;;;5085546;28;20043;-76
2023/07/31 02:59:31;;;;;;;41.70;20.17;;;19.00;99.90;;;;;;5099670;28;20237;-74
2023/07/31 03:01:58;;;;;;;41.63;20.48;;;19.00;99.90;;;;;;5102552;28;20040;-74
2023/07/31 03:04:27;;;;;;;55.10;22.30;;;18.90;99.90;;;;;;5083256;28;20048;-78
2023/07/31 03:06:54;;;;;;;64.72;23.17;;;18.80;99.90;;;;;;5084302;28;20056;-78
2023/07/31 03:09:23;;;;;;;62.38;23.92;;;18.80;99.90;;;;;;5101832;28;20047;-76
2023/07/31 03:11:50;;;;;;;56.83;27.08;;;18.80;99.90;;;;;;5100894;28;20048;-73
2023/07/31 03:14:18;;;;;;;57.83;25.48;;;18.70;99.90;;;;;;5083475;28;20036;-74
2023/07/31 03:16:45;;;;;;;48.45;23.20;;;18.70;99.90;;;;;;5085338;28;20055;-75
2023/07/31 03:19:12;;;;;;;42.78;22.20;;;18.70;99.90;;;;;;5082041;28;20067;-72
2023/07/31 03:21:40;;;;;;;38.20;22.42;;;18.80;99.90;;;;;;5083425;28;20670;-75
2023/07/31 03:24:07;;;;;;;32.45;21.90;;;18.70;99.90;;;;;;5097943;28;20044;-76
2023/07/31 03:26:36;;;;;;;47.10;24.30;;;18.70;99.90;;;;;;5082372;28;20040;-75
2023/07/31 03:29:04;;;;;;;33.85;20.85;;;18.70;99.90;;;;;;5082608;28;20040;-75
2023/07/31 03:31:32;;;;;;;30.30;20.90;;;18.80;99.90;;;;;;5102149;28;20059;-76
2023/07/31 03:33:59;;;;;;;25.02;19.75;;;18.90;99.90;;;;;;5099805;22;20055;-79
2023/07/31 03:36:28;;;;;;;30.02;21.58;;;19.00;99.90;;;;;;5059622;28;20061;-79
2023/07/31 03:38:55;;;;;;;28.70;20.85;;;19.00;99.90;;;;;;5060043;28;20049;-77
2023/07/31 03:41:23;;;;;;;28.88;20.65;;;19.10;99.90;;;;;;5083220;28;20041;-78
2023/07/31 03:43:52;;;;;;;35.35;20.10;;;19.20;99.90;;;;;;5082677;28;20072;-78
2023/07/31 03:46:20;;;;;;;30.33;18.55;;;19.10;99.90;;;;;;5058840;28;20051;-78
2023/07/31 03:48:50;;;;;;;23.98;17.77;;;19.00;99.90;;;;;;5058471;28;20041;-76
2023/07/31 03:51:17;;;;;;;21.02;17.02;;;18.90;99.90;;;;;;5061789;28;20040;-79
2023/07/31 03:53:45;;;;;;;25.85;16.73;;;18.90;99.90;;;;;;5059743;28;20489;-78
2023/07/31 03:56:13;;;;;;;24.15;16.50;;;19.00;99.90;;;;;;5059621;28;20114;-78
2023/07/31 03:58:40;;;;;;;21.23;16.55;;;19.00;99.90;;;;;;5081842;28;20051;-79
2023/07/31 04:01:09;;;;;;;22.48;17.08;;;19.00;99.90;;;;;;5080969;28;20035;-78
2023/07/31 04:03:36;;;;;;;19.10;16.60;;;19.00;99.90;;;;;;5084949;28;20093;-79
2023/07/31 04:06:04;;;;;;;18.90;14.63;;;19.10;99.90;;;;;;5079756;28;20057;-77
2023/07/31 04:08:31;;;;;;;22.48;13.77;;;19.10;99.90;;;;;;5072128;28;20048;-78
2023/07/31 04:10:59;;;;;;;17.63;11.85;;;19.20;99.90;;;;;;5059900;28;20163;-76
2023/07/31 04:13:28;;;;;;;16.60;11.73;;;19.30;99.90;;;;;;5060327;28;20112;-78
2023/07/31 04:15:55;;;;;;;18.70;11.10;;;19.30;99.90;;;;;;5067327;28;20541;-77
2023/07/31 04:18:26;;;;;;;15.70;10.80;;;19.40;99.90;;;;;;5063792;28;20157;-77
2023/07/31 04:20:54;;;;;;;16.15;10.95;;;19.40;99.90;;;;;;5064703;28;20511;-77
2023/07/31 04:23:21;;;;;;;16.17;11.15;;;19.40;99.90;;;;;;5060803;28;20037;-79
2023/07/31 04:25:49;;;;;;;16.08;10.82;;;19.50;99.90;;;;;;5057715;28;20052;-76
2023/07/31 04:28:16;;;;;;;19.83;12.50;;;19.50;99.90;;;;;;5057880;28;20510;-78
2023/07/31 04:30:44;;;;;;;20.65;13.48;;;19.50;99.90;;;;;;5061628;28;20115;-79
2023/07/31 04:33:11;;;;;;;17.20;13.43;;;19.50;99.90;;;;;;5058639;28;20528;-78
2023/07/31 04:35:40;;;;;;;23.35;14.68;;;19.50;99.90;;;;;;5057384;28;20040;-77
2023/07/31 04:38:08;;;;;;;30.05;14.95;;;19.60;99.90;;;;;;5060999;28;20128;-78
2023/07/31 04:40:36;;;;;;;19.15;13.48;;;19.70;99.90;;;;;;5056594;28;20043;-77
2023/07/31 04:43:03;;;;;;;17.67;12.35;;;19.90;99.90;;;;;;5059551;28;20466;-78
2023/07/31 04:45:30;;;;;;;18.45;13.07;;;20.00;99.90;;;;;;5057721;28;20489;-77
2023/07/31 04:47:58;;;;;;;19.88;12.68;;;20.30;99.90;;;;;;5057699;28;20045;-77
2023/07/31 04:50:25;;;;;;;20.55;14.18;;;20.40;99.90;;;;;;5057284;28;20499;-77
2023/07/31 04:52:54;;;;;;;22.73;15.25;;;20.60;99.90;;;;;;5060958;28;20059;-77
2023/07/31 04:55:22;;;;;;;22.40;16.60;;;20.60;99.90;;;;;;5059615;28;20041;-79
2023/07/31 04:57:49;;;;;;;22.70;16.20;;;20.70;99.90;;;;;;5056402;28;20072;-79
2023/07/31 05:00:17;;;;;;;27.80;17.00;;;20.70;99.90;;;;;;5059063;28;20133;-78
2023/07/31 05:02:45;;;;;;;28.52;17.13;;;20.70;99.90;;;;;;5058285;28;20467;-76
2023/07/31 05:05:12;;;;;;;30.60;18.05;;;20.80;99.90;;;;;;5060412;28;20041;-78
2023/07/31 05:07:39;;;;;;;32.47;18.75;;;21.00;99.90;;;;;;5058933;28;20408;-78
2023/07/31 05:10:09;;;;;;;35.70;19.77;;;21.10;99.90;;;;;;5063303;28;20055;-77
2023/07/31 05:12:37;;;;;;;35.15;18.73;;;21.20;99.90;;;;;;5060257;28;20041;-77
2023/07/31 05:15:05;;;;;;;31.48;19.05;;;21.30;99.90;;;;;;5060697;28;20037;-79
2023/07/31 05:17:32;;;;;;;31.98;18.85;;;21.30;99.90;;;;;;5062051;28;20048;-79
2023/07/31 05:20:00;;;;;;;38.53;19.85;;;21.30;99.90;;;;;;5065261;28;20064;-78
2023/07/31 05:22:27;;;;;;;35.47;19.40;;;21.20;99.90;;;;;;5058081;28;20033;-76
2023/07/31 05:24:55;;;;;;;33.78;19.27;;;21.10;99.90;;;;;;5058711;28;20064;-77
2023/07/31 05:27:24;;;;;;;33.92;20.27;;;21.10;99.90;;;;;;5059864;28;20652;-76
2023/07/31 05:29:51;;;;;;;32.97;18.77;;;21.20;99.90;;;;;;5059327;28;20141;-77
2023/07/31 05:32:18;;;;;;;31.52;18.70;;;21.40;99.90;;;;;;5061174;28;20163;-79
2023/07/31 05:34:46;;;;;;;32.63;19.02;;;21.50;99.90;;;;;;5060029;28;20071;-77
2023/07/31 05:37:13;;;;;;;32.40;18.88;;;21.70;99.90;;;;;;5058181;28;20045;-78
2023/07/31 05:39:41;;;;;;;34.42;18.42;;;21.80;99.90;;;;;;5057480;28;20044;-77
2023/07/31 05:42:08;;;;;;;39.47;24.55;;;22.00;99.90;;;;;;5057370;28;20039;-76
2023/07/31 05:44:37;;;;;;;38.85;25.42;;;22.20;99.90;;;;;;5056289;28;20033;-76
2023/07/31 05:47:05;;;;;;;32.53;19.55;;;22.40;99.90;;;;;;5055989;28;20124;-79
2023/07/31 05:49:32;;;;;;;36.25;20.75;;;22.70;99.90;;;;;;5060345;28;20045;-78
2023/07/31 05:52:00;;;;;;;43.40;25.70;;;22.80;99.90;;;;;;5059464;28;20055;-77
2023/07/31 05:54:28;;;;;;;47.30;30.52;;;22.80;99.90;;;;;;5058831;28;20055;-80
2023/07/31 05:56:55;;;;;;;41.88;29.58;;;22.70;99.90;;;;;;5057959;28;20053;-79
2023/07/31 05:59:23;;;;;;;40.08;29.02;;;22.90;99.90;;;;;;5057734;28;20071;-77
2023/07/31 06:01:52;;;;;;;35.97;24.90;;;22.90;99.90;;;;;;5058938;28;20044;-78
2023/07/31 06:04:19;;;;;;;33.28;23.90;;;22.90;99.90;;;;;;5062241;28;20127;-78
2023/07/31 06:06:47;;;;;;;30.45;22.88;;;22.90;99.90;;;;;;5065547;28;20051;-79
2023/07/31 06:09:14;;;;;;;27.17;21.83;;;23.10;99.90;;;;;;5064322;28;20068;-78
2023/07/31 06:11:44;;;;;;;28.13;21.50;;;23.30;99.90;;;;;;5062163;28;20040;-79
2023/07/31 06:14:11;;;;;;;24.20;20.00;;;23.30;99.90;;;;;;5060245;28;20052;-78
2023/07/31 06:16:39;;;;;;;24.92;19.60;;;23.40;99.90;;;;;;5062407;28;20067;-76
2023/07/31 06:19:10;;;;;;;23.95;19.27;;;23.70;99.90;;;;;;5057962;28;20045;-78
2023/07/31 06:21:38;;;;;;;23.63;19.15;;;24.20;99.90;;;;;;5060892;28;20048;-79
2023/07/31 06:24:06;;;;;;;19.45;17.08;;;24.60;4.90;;;;;;5060413;28;20055;-78
2023/07/31 06:26:34;;;;;;;21.02;17.00;;;24.90;99.90;;;;;;5060644;28;20075;-76
2023/07/31 06:29:02;;;;;;;27.58;22.48;;;25.00;1.00;;;;;;5084241;28;20044;-86
2023/07/31 06:31:29;;;;;;;21.40;15.90;;;24.60;1.00;;;;;;5059805;28;20497;-78
2023/07/31 06:33:59;;;;;;;24.35;16.95;;;24.10;1.00;;;;;;5058945;28;20129;-79
2023/07/31 06:36:28;;;;;;;22.83;19.13;;;23.90;99.90;;;;;;5062364;28;20044;-79
2023/07/31 06:38:56;;;;;;;16.23;12.93;;;24.10;99.90;;;;;;5058303;28;20048;-77
2023/07/31 06:41:23;;;;;;;16.52;13.00;;;24.40;99.90;;;;;;5059810;28;20463;-77
2023/07/31 06:43:51;;;;;;;15.63;12.80;;;24.60;1.00;;;;;;5062984;28;20044;-78
2023/07/31 06:46:18;;;;;;;19.88;15.10;;;25.20;99.90;;;;;;5063059;28;20055;-76
2023/07/31 06:48:46;;;;;;;18.45;13.45;;;25.90;99.90;;;;;;5062637;28;20037;-79
2023/07/31 06:51:13;;;;;;;20.50;16.02;;;26.70;99.90;;;;;;5062234;28;20089;-78
2023/07/31 06:53:45;;;;;;;18.60;13.18;;;27.10;99.90;;;;;;5060629;28;20041;-77
2023/07/31 06:56:12;;;;;;;15.68;10.32;;;27.10;99.90;;;;;;5061208;28;20041;-77
2023/07/31 06:58:40;;;;;;;17.70;11.07;;;26.60;99.90;;;;;;5058559;28;20131;-79
2023/07/31 07:01:07;;;;;;;14.70;11.65;;;26.50;99.90;;;;;;5058147;28;20485;-78
2023/07/31 07:03:35;;;;;;;11.55;9.10;;;26.70;99.90;;;;;;5061497;28;20067;-79
2023/07/31 07:06:02;;;;;;;13.23;9.82;;;26.70;99.90;;;;;;5058851;28;20047;-77
2023/07/31 07:08:30;;;;;;;12.98;8.68;;;26.90;99.90;;;;;;5061080;28;20062;-77
2023/07/31 07:10:59;;;;;;;11.77;9.45;;;27.00;99.90;;;;;;5059295;28;20051;-77
2023/07/31 07:13:26;;;;;;;10.38;7.15;;;27.20;99.90;;;;;;5059631;28;20060;-80
2023/07/31 07:15:54;;;;;;;5.55;3.80;;;27.30;99.90;;;;;;5058711;28;20045;-79
2023/07/31 07:18:21;;;;;;;5.07;3.70;;;27.30;99.90;;;;;;5068748;28;20025;-78
2023/07/31 07:20:51;;;;;;;5.43;3.08;;;27.30;99.90;;;;;;5083768;28;20036;-79
2023/07/31 07:23:19;;;;;;;5.60;4.28;;;27.10;99.90;;;;;;5080636;28;20113;-78
2023/07/31 07:25:47;;;;;;;4.00;3.38;;;27.20;99.90;;;;;;5078366;28;20142;-76
2023/07/31 07:28:15;;;;;;;5.25;2.83;;;27.10;99.90;;;;;;5062503;28;20045;-78
2023/07/31 07:30:44;;;;;;;4.82;2.92;;;27.10;99.90;;;;;;5061293;28;20047;-78
2023/07/31 07:33:12;;;;;;;5.65;3.03;;;27.00;99.90;;;;;;5064234;28;20051;-78
2023/07/31 07:35:39;;;;;;;4.85;2.90;;;26.80;99.90;;;;;;5053480;28;20033;-78
2023/07/31 07:38:07;;;;;;;5.60;2.70;;;27.00;99.90;;;;;;5061029;28;20118;-78
2023/07/31 07:40:39;;;;;;;4.80;3.00;;;27.00;99.90;;;;;;5058168;28;20041;-78
2023/07/31 07:43:06;;;;;;;4.88;2.90;;;26.90;99.90;;;;;;5057740;28;20495;-78
2023/07/31 07:45:35;;;;;;;6.57;4.32;;;26.70;99.90;;;;;;5057048;28;20131;-78
2023/07/31 07:48:02;;;;;;;5.53;3.22;;;26.60;99.90;;;;;;5059039;28;20044;-76
2023/07/31 07:50:31;;;;;;;5.82;2.80;;;26.40;99.90;;;;;;5058906;28;20515;-78
2023/07/31 07:52:58;;;;;;;4.95;3.70;;;26.20;99.90;;;;;;5064473;28;20122;-78
2023/07/31 07:55:26;;;;;;;5.97;3.05;;;26.00;99.90;;;;;;5072396;28;20558;-79
2023/07/31 07:57:53;;;;;;;5.10;3.78;;;25.90;99.90;;;;;;5065411;28;20522;-78
2023/07/31 08:00:21;;;;;;;4.15;2.65;;;26.00;99.90;;;;;;5060268;28;20044;-76
2023/07/31 08:02:49;;;;;;;5.97;3.55;;;26.20;99.90;;;;;;5065917;28;20040;-76
2023/07/31 08:05:17;;;;;;;6.07;3.80;;;26.30;99.90;;;;;;5059558;28;20044;-76
2023/07/31 08:07:45;;;;;;;5.95;3.40;;;26.20;99.90;;;;;;5059705;28;20041;-78
2023/07/31 08:10:12;;;;;;;6.00;4.25;;;25.90;99.90;;;;;;5083356;28;20051;-77
2023/07/31 08:12:40;;;;;;;4.57;2.65;;;25.90;99.90;;;;;;5059698;28;20089;-77
2023/07/31 08:15:08;;;;;;;3.80;2.70;;;25.90;99.90;;;;;;5057192;28;20045;-76
2023/07/31 08:17:36;;;;;;;3.15;2.25;;;26.00;99.90;;;;;;5060511;28;20412;-77
2023/07/31 08:20:05;;;;;;;3.45;2.63;;;26.20;99.90;;;;;;5057428;28;20521;-77
2023/07/31 08:22:33;;;;;;;4.05;2.45;;;26.40;99.90;;;;;;5058100;28;20037;-77
2023/07/31 08:25:00;;;;;;;4.18;2.45;;;26.70;99.90;;;;;;5058941;28;20048;-76
2023/07/31 08:27:28;;;;;;;3.70;2.78;;;26.70;99.90;;;;;;5058884;28;20477;-77
2023/07/31 08:29:55;;;;;;;4.05;2.78;;;26.60;99.90;;;;;;5057971;28;20048;-78
2023/07/31 08:32:23;;;;;;;2.58;1.67;;;26.50;99.90;;;;;;5058004;28;20495;-79
2023/07/31 08:34:50;;;;;;;3.88;1.45;;;26.00;99.90;;;;;;5057448;28;20635;-78
2023/07/31 08:37:19;;;;;;;3.60;1.60;;;25.50;99.90;;;;;;5058889;28;20108;-77
2023/07/31 08:39:46;;;;;;;2.92;1.73;;;25.20;99.90;;;;;;5058406;28;20032;-78
2023/07/31 08:42:14;;;;;;;3.10;1.65;;;25.30;99.90;;;;;;5057806;28;20063;-79
2023/07/31 08:44:42;;;;;;;3.85;1.92;;;25.40;99.90;;;;;;5059746;28;20049;-78
2023/07/31 08:47:10;;;;;;;3.00;1.90;;;25.40;99.90;;;;;;5059368;28;20048;-77
2023/07/31 08:49:40;;;;;;;5.00;2.60;;;25.90;99.90;;;;;;5057505;28;20640;-79
2023/07/31 08:52:08;;;;;;;3.45;1.80;;;26.40;99.90;;;;;;5083224;28;20507;-78
2023/07/31 08:54:37;;;;;;;6.13;4.07;;;26.20;99.90;;;;;;5060674;28;20043;-78
2023/07/31 08:57:08;;;;;;;3.65;1.80;;;26.10;99.90;;;;;;5057730;28;20051;-78
2023/07/31 08:59:37;;;;;;;5.05;2.95;;;26.00;99.90;;;;;;5057535;28;20080;-85
2023/07/31 09:02:07;;;;;;;4.15;3.03;;;26.40;99.90;;;;;;5059754;28;20120;-84
2023/07/31 09:04:35;;;;;;;6.63;3.28;;;27.00;99.90;;;;;;5083952;28;20048;-78
2023/07/31 09:07:13;;;;;;;6.38;3.97;;;27.50;99.90;;;;;;5059339;28;20049;-81
2023/07/31 09:09:42;;;;;;;3.40;2.10;;;27.90;99.90;;;;;;5058619;28;20059;-79
2023/07/31 09:12:10;;;;;;;5.20;2.70;;;27.60;99.90;;;;;;5061403;28;20045;-77
2023/07/31 09:14:41;;;;;;;4.07;2.95;;;27.20;99.90;;;;;;5062510;28;20040;-84
2023/07/31 09:17:09;;;;;;;6.63;3.95;;;26.40;99.90;;;;;;5074498;28;20060;-83
2023/07/31 09:19:38;;;;;;;3.45;2.35;;;26.50;99.90;;;;;;5070931;28;20082;-79
2023/07/31 09:22:06;;;;;;;4.95;2.25;;;26.80;99.90;;;;;;5061407;28;20689;-81
2023/07/31 09:24:35;;;;;;;4.32;2.95;;;27.10;99.90;;;;;;5058070;28;20087;-77
2023/07/31 09:27:04;;;;;;;74.60;59.88;;;27.30;99.90;;;;;;5080923;28;20124;-80
2023/07/31 09:29:31;;;;;;;4.32;2.83;;;27.30;99.90;;;;;;5058591;28;20343;-78
2023/07/31 09:31:59;;;;;;;6.47;2.95;;;27.20;99.90;;;;;;5058104;28;20048;-79
2023/07/31 09:34:39;;;;;;;18.17;13.15;;;27.20;99.90;;;;;;5110787;22;20035;-76
2023/07/31 09:37:07;;;;;;;5.95;4.85;;;27.40;99.90;;;;;;5105937;27;20063;-76
2023/07/31 09:39:50;;;;;;;4.93;2.53;;;27.50;99.90;;;;;;5125631;27;20043;-75
2023/07/31 09:42:28;;;;;;;4.07;2.20;;;27.40;99.90;;;;;;5124049;27;20047;-74
2023/07/31 09:45:07;;;;;;;5.50;3.58;;;27.40;99.90;;;;;;5103642;28;20052;-78
2023/07/31 09:47:35;;;;;;;2.80;2.10;;;26.90;99.90;;;;;;5103652;28;20509;-80
2023/07/31 09:50:02;;;;;;;3.75;2.33;;;26.70;99.90;;;;;;5086798;28;20412;-77
2023/07/31 09:52:30;;;;;;;5.22;2.28;;;26.90;99.90;;;;;;5077801;28;20044;-78
2023/07/31 09:54:57;;;;;;;3.60;2.13;;;27.30;99.90;;;;;;5106246;28;20044;-74
2023/07/31 09:57:26;;;;;;;4.10;2.45;;;27.40;99.90;;;;;;5112500;28;20281;-76
2023/07/31 09:59:55;;;;;;;2.45;1.75;;;27.20;99.90;;;;;;5119387;28;20092;-75
2023/07/31 10:02:23;;;;;;;4.32;2.60;;;27.20;99.90;;;;;;5103625;28;20031;-76
2023/07/31 10:04:51;;;;;;;1.80;1.40;;;27.20;99.90;;;;;;5118235;28;20047;-78
2023/07/31 10:07:21;;;;;;;4.22;2.15;;;26.90;99.90;;;;;;5115303;28;20056;-75
2023/07/31 10:09:50;;;;;;;3.47;2.22;;;26.70;99.90;;;;;;5088447;28;20093;-75
2023/07/31 10:12:22;;;;;;;2.92;1.80;;;26.70;99.90;;;;;;5093219;28;20056;-78
2023/07/31 10:14:53;;;;;;;5.93;3.97;;;26.70;99.90;;;;;;5107976;28;20040;-77
2023/07/31 10:17:22;;;;;;;3.50;1.95;;;26.70;99.90;;;;;;5104755;28;20127;-76
2023/07/31 10:19:50;;;;;;;3.92;1.98;;;26.90;99.90;;;;;;5101797;28;20497;-75
2023/07/31 10:22:20;;;;;;;4.47;2.15;;;26.60;99.90;;;;;;5104902;28;20510;-75
2023/07/31 10:24:49;;;;;;;3.58;2.15;;;26.70;99.90;;;;;;5100661;28;21036;-75
2023/07/31 10:27:19;;;;;;;5.10;2.30;;;26.70;99.90;;;;;;5102374;28;20067;-75
2023/07/31 10:29:49;;;;;;;3.17;2.00;;;26.60;99.90;;;;;;5102777;28;20064;-75
2023/07/31 10:32:19;;;;;;;5.07;2.13;;;26.50;99.90;;;;;;5108355;28;20040;-74
2023/07/31 10:34:47;;;;;;;3.08;1.90;;;26.30;99.90;;;;;;5104506;28;20341;-76
2023/07/31 10:37:22;;;;;;;3.45;2.08;;;26.30;99.90;;;;;;5086092;28;20032;-76
2023/07/31 10:40:02;;;;;;;5.07;3.55;;;26.50;99.90;;;;;;5102720;28;20057;-76
2023/07/31 10:42:34;;;;;;;4.90;2.65;;;26.80;99.90;;;;;;5109133;28;20072;-77
2023/07/31 10:45:04;;;;;;;4.57;3.65;;;27.20;99.90;;;;;;5102441;28;20044;-74
2023/07/31 10:47:37;;;;;;;3.75;2.50;;;27.60;99.90;;;;;;5102491;28;20043;-77
2023/07/31 10:50:17;;;;;;;4.60;3.03;;;27.90;99.90;;;;;;5099473;28;20043;-76
2023/07/31 10:52:48;;;;;;;3.42;2.42;;;28.20;99.90;;;;;;5099999;28;20089;-74
2023/07/31 10:55:30;;;;;;;4.00;2.42;;;28.10;99.90;;;;;;5111646;28;20043;-74
2023/07/31 10:58:05;;;;;;;4.15;2.38;;;28.00;99.90;;;;;;5109193;28;20084;-75
2023/07/31 11:00:33;;;;;;;5.50;3.88;;;27.90;99.90;;;;;;5104168;28;20036;-75
2023/07/31 11:03:03;;;;;;;2.90;2.08;;;27.90;99.90;;;;;;5092153;28;20115;-74
2023/07/31 11:05:53;;;;;;;3.58;2.25;;;27.50;99.90;;;;;;5122309;28;20051;-75
2023/07/31 11:08:23;;;;;;;4.22;2.40;;;27.50;99.90;;;;;;5120447;28;20059;-75
2023/07/31 11:10:52;;;;;;;5.80;3.10;;;27.50;99.90;;;;;;5116835;28;20067;-77
2023/07/31 11:13:19;;;;;;;5.88;3.85;;;27.60;99.90;;;;;;5118920;28;20046;-78
2023/07/31 11:15:47;;;;;;;3.20;1.98;;;27.60;99.90;;;;;;5097288;28;20108;-80
2023/07/31 11:18:18;;;;;;;3.10;2.00;;;27.40;99.90;;;;;;5122032;28;20138;-75
2023/07/31 11:20:46;;;;;;;5.68;2.42;;;27.20;99.90;;;;;;5117301;28;20044;-74
2023/07/31 11:23:14;;;;;;;6.45;2.13;;;26.90;99.90;;;;;;5092401;28;20048;-77
2023/07/31 11:25:41;;;;;;;5.28;4.28;;;27.00;99.90;;;;;;5103238;28;20053;-76
2023/07/31 11:28:11;;;;;;;6.13;3.50;;;27.10;99.90;;;;;;5098867;28;20057;-77
2023/07/31 11:30:39;;;;;;;3.50;2.40;;;27.20;99.90;;;;;;5105779;28;20040;-77
2023/07/31 11:33:09;;;;;;;4.18;2.70;;;27.40;99.90;;;;;;5111143;28;20040;-79
2023/07/31 11:35:45;;;;;;;3.53;2.10;;;27.50;99.90;;;;;;5085680;28;20036;-74
2023/07/31 11:38:32;;;;;;;3.55;2.35;;;27.60;99.90;;;;;;5073378;28;20076;-80
2023/07/31 11:41:02;;;;;;;2.90;2.08;;;27.20;99.90;;;;;;5073338;28;20509;-77
2023/07/31 11:44:01;;;;;;;3.55;2.30;;;27.10;99.90;;;;;;5085883;28;20548;-75
2023/07/31 11:46:31;;;;;;;4.40;2.20;;;27.30;99.90;;;;;;5084419;28;20036;-76
2023/07/31 11:49:07;;;;;;;5.00;2.58;;;27.20;99.90;;;;;;5082699;28;20036;-81
2023/07/31 11:51:36;;;;;;;4.20;2.13;;;27.20;99.90;;;;;;5088285;28;20094;-75
2023/07/31 11:54:14;;;;;;;5.57;2.30;;;27.20;99.90;;;;;;5088230;28;20043;-83
2023/07/31 11:56:42;;;;;;;3.50;2.13;;;27.20;99.90;;;;;;5074316;28;20093;-81
2023/07/31 11:59:12;;;;;;;61.83;46.90;;;27.20;99.90;;;;;;5063190;28;20040;-79
2023/07/31 12:01:40;;;;;;;195.88;158.45;;;27.30;99.90;;;;;;5083075;28;20036;-81
2023/07/31 12:04:07;;;;;;;21.85;16.63;;;27.40;99.90;;;;;;5084703;28;20090;-80
2023/07/31 12:06:37;;;;;;;6.55;5.30;;;27.60;99.90;;;;;;5080628;28;20067;-77
2023/07/31 12:09:05;;;;;;;5.43;3.20;;;28.00;99.90;;;;;;5077523;28;20040;-75
2023/07/31 12:11:33;;;;;;;9.23;7.32;;;28.20;99.90;;;;;;5080092;28;20055;-78
2023/07/31 12:14:00;;;;;;;3.20;2.08;;;27.60;99.90;;;;;;5082172;28;20044;-76
2023/07/31 12:16:29;;;;;;;5.55;3.63;;;27.40;99.90;;;;;;5080963;28;20040;-75
2023/07/31 12:18:56;;;;;;;3.00;2.08;;;27.40;99.90;;;;;;5077323;28;20449;-77
2023/07/31 12:21:24;;;;;;;3.88;2.42;;;27.30;99.90;;;;;;5063242;28;20071;-76
2023/07/31 12:23:54;;;;;;;6.07;4.15;;;27.10;99.90;;;;;;5080919;28;20045;-76
2023/07/31 12:26:23;;;;;;;4.32;3.55;;;27.40;99.90;;;;;;5079396;28;20044;-77
2023/07/31 12:28:51;;;;;;;4.35;2.20;;;27.40;99.90;;;;;;5081032;28;20071;-77
2023/07/31 12:31:22;;;;;;;6.03;2.53;;;27.20;99.90;;;;;;5081485;28;20070;-75
2023/07/31 12:33:51;;;;;;;6.07;3.58;;;27.40;99.90;;;;;;5084963;28;20052;-76
2023/07/31 12:36:21;;;;;;;4.88;2.70;;;27.70;99.90;;;;;;5109973;28;20104;-76
2023/07/31 12:38:48;;;;;;;3.95;2.70;;;28.00;99.90;;;;;;5099217;28;20719;-78
2023/07/31 12:41:17;;;;;;;5.22;2.90;;;28.10;99.90;;;;;;5082460;28;20115;-77
2023/07/31 12:43:46;;;;;;;5.45;3.33;;;28.30;99.90;;;;;;5082352;28;20062;-75
2023/07/31 12:46:14;;;;;;;5.05;2.47;;;28.50;99.90;;;;;;5101598;28;20040;-76